sensor_id;sensor_type;location;lat;lon;timestamp;temperature;humidity
22779;DHT22;11556;51.194;3.800;2022-11-06T00:00:38;12.00;99.90
22779;DHT22;11556;51.194;3.800;2022-11-06T00:03:05;12.00;99.90
22779;DHT22;11556;51.194;3.800;2022-11-06T00:05:30;12.00;99.90
22779;DHT22;11556;51.194;3.800;2022-11-06T00:08:15;12.00;99.90
22779;DHT22;11556;51.194;3.800;2022-11-06T00:10:49;11.90;99.90
22779;DHT22;11556;51.194;3.800;2022-11-06T00:13:15;12.00;99.90
22779;DHT22;11556;51.194;3.800;2022-11-06T00:15:42;12.10;99.90
22779;DHT22;11556;51.194;3.800;2022-11-06T00:18:08;12.00;99.90
22779;DHT22;11556;51.194;3.800;2022-11-06T00:20:35;12.00;99.90
22779;DHT22;11556;51.194;3.800;2022-11-06T00:23:01;12.10;99.90
22779;DHT22;11556;51.194;3.800;2022-11-06T00:25:27;12.00;99.90
22779;DHT22;11556;51.194;3.800;2022-11-06T00:27:52;11.90;99.90
22779;DHT22;11556;51.194;3.800;2022-11-06T00:30:18;12.00;99.90
22779;DHT22;11556;51.194;3.800;2022-11-06T00:32:45;12.00;99.90
22779;DHT22;11556;51.194;3.800;2022-11-06T00:35:12;12.10;99.90
22779;DHT22;11556;51.194;3.800;2022-11-06T00:37:38;12.10;99.90
22779;DHT22;11556;51.194;3.800;2022-11-06T00:40:04;12.10;99.90
22779;DHT22;11556;51.194;3.800;2022-11-06T00:42:29;12.10;99.90
22779;DHT22;11556;51.194;3.800;2022-11-06T00:44:55;12.20;99.90
22779;DHT22;11556;51.194;3.800;2022-11-06T00:47:20;12.20;99.90
22779;DHT22;11556;51.194;3.800;2022-11-06T00:49:46;12.20;99.90
22779;DHT22;11556;51.194;3.800;2022-11-06T00:52:12;12.00;99.90
22779;DHT22;11556;51.194;3.800;2022-11-06T00:54:37;12.00;99.90
22779;DHT22;11556;51.194;3.800;2022-11-06T00:57:03;12.00;99.90
22779;DHT22;11556;51.194;3.800;2022-11-06T00:59:28;12.00;99.90
22779;DHT22;11556;51.194;3.800;2022-11-06T01:01:54;12.10;99.90
22779;DHT22;11556;51.194;3.800;2022-11-06T01:04:22;12.10;99.90
22779;DHT22;11556;51.194;3.800;2022-11-06T01:06:49;12.00;99.90
22779;DHT22;11556;51.194;3.800;2022-11-06T01:09:19;12.00;99.90
22779;DHT22;11556;51.194;3.800;2022-11-06T01:11:47;12.10;99.90
22779;DHT22;11556;51.194;3.800;2022-11-06T01:14:15;12.10;99.90
22779;DHT22;11556;51.194;3.800;2022-11-06T01:16:41;12.10;99.90
22779;DHT22;11556;51.194;3.800;2022-11-06T01:19:07;12.00;99.90
22779;DHT22;11556;51.194;3.800;2022-11-06T01:21:38;12.10;99.90
22779;DHT22;11556;51.194;3.800;2022-11-06T01:24:10;12.20;99.90
22779;DHT22;11556;51.194;3.800;2022-11-06T01:26:36;12.20;99.90
22779;DHT22;11556;51.194;3.800;2022-11-06T01:29:04;12.10;99.90
22779;DHT22;11556;51.194;3.800;2022-11-06T01:31:31;12.00;99.90
22779;DHT22;11556;51.194;3.800;2022-11-06T01:33:58;12.00;99.90
22779;DHT22;11556;51.194;3.800;2022-11-06T01:36:25;11.90;99.90
22779;DHT22;11556;51.194;3.800;2022-11-06T01:38:53;11.90;99.90
22779;DHT22;11556;51.194;3.800;2022-11-06T01:41:22;12.00;99.90
22779;DHT22;11556;51.194;3.800;2022-11-06T01:46:16;12.00;99.90
22779;DHT22;11556;51.194;3.800;2022-11-06T01:49:01;12.00;99.90
22779;DHT22;11556;51.194;3.800;2022-11-06T01:51:31;11.90;99.90
22779;DHT22;11556;51.194;3.800;2022-11-06T01:53:58;11.90;99.90
22779;DHT22;11556;51.194;3.800;2022-11-06T01:56:25;11.80;99.90
22779;DHT22;11556;51.194;3.800;2022-11-06T01:58:52;11.90;99.90
22779;DHT22;11556;51.194;3.800;2022-11-06T02:01:19;11.80;99.90
22779;DHT22;11556;51.194;3.800;2022-11-06T02:04:08;11.80;99.90
22779;DHT22;11556;51.194;3.800;2022-11-06T02:06:35;11.80;99.90
22779;DHT22;11556;51.194;3.800;2022-11-06T02:09:02;11.80;99.90
22779;DHT22;11556;51.194;3.800;2022-11-06T02:11:28;11.70;99.90
22779;DHT22;11556;51.194;3.800;2022-11-06T02:14:00;11.70;99.90
22779;DHT22;11556;51.194;3.800;2022-11-06T02:16:39;11.70;99.90
22779;DHT22;11556;51.194;3.800;2022-11-06T02:25:15;11.70;99.90
22779;DHT22;11556;51.194;3.800;2022-11-06T02:27:47;11.70;99.90
22779;DHT22;11556;51.194;3.800;2022-11-06T02:30:16;11.70;99.90
22779;DHT22;11556;51.194;3.800;2022-11-06T02:35:35;11.60;99.90
22779;DHT22;11556;51.194;3.800;2022-11-06T02:38:12;11.70;99.90
22779;DHT22;11556;51.194;3.800;2022-11-06T02:40:42;11.60;99.90
22779;DHT22;11556;51.194;3.800;2022-11-06T02:43:09;11.60;99.90
22779;DHT22;11556;51.194;3.800;2022-11-06T02:45:43;11.70;99.90
22779;DHT22;11556;51.194;3.800;2022-11-06T02:48:11;11.80;99.90
22779;DHT22;11556;51.194;3.800;2022-11-06T02:50:43;11.80;99.90
22779;DHT22;11556;51.194;3.800;2022-11-06T02:53:10;11.90;99.90
22779;DHT22;11556;51.194;3.800;2022-11-06T02:55:48;11.90;99.90
22779;DHT22;11556;51.194;3.800;2022-11-06T03:01:22;12.00;99.90
22779;DHT22;11556;51.194;3.800;2022-11-06T03:03:52;12.00;99.90
22779;DHT22;11556;51.194;3.800;2022-11-06T03:06:28;12.00;99.90
22779;DHT22;11556;51.194;3.800;2022-11-06T03:09:03;11.90;99.90
22779;DHT22;11556;51.194;3.800;2022-11-06T03:11:33;12.10;99.90
22779;DHT22;11556;51.194;3.800;2022-11-06T03:16:57;12.10;99.90
22779;DHT22;11556;51.194;3.800;2022-11-06T03:19:47;12.00;99.90
22779;DHT22;11556;51.194;3.800;2022-11-06T03:22:43;12.00;99.90
22779;DHT22;11556;51.194;3.800;2022-11-06T03:25:20;12.10;99.90
22779;DHT22;11556;51.194;3.800;2022-11-06T03:28:42;12.00;99.90
22779;DHT22;11556;51.194;3.800;2022-11-06T03:31:02;11.90;99.90
22779;DHT22;11556;51.194;3.800;2022-11-06T03:33:51;11.80;99.90
22779;DHT22;11556;51.194;3.800;2022-11-06T03:36:22;11.80;99.90
22779;DHT22;11556;51.194;3.800;2022-11-06T03:38:57;11.80;99.90
22779;DHT22;11556;51.194;3.800;2022-11-06T03:41:47;11.90;99.90
22779;DHT22;11556;51.194;3.800;2022-11-06T03:44:17;11.90;99.90
22779;DHT22;11556;51.194;3.800;2022-11-06T03:46:48;12.00;99.90
22779;DHT22;11556;51.194;3.800;2022-11-06T03:49:23;11.90;99.90
22779;DHT22;11556;51.194;3.800;2022-11-06T03:51:58;11.90;99.90
22779;DHT22;11556;51.194;3.800;2022-11-06T03:54:35;12.00;99.90
22779;DHT22;11556;51.194;3.800;2022-11-06T03:57:28;12.10;99.90
22779;DHT22;11556;51.194;3.800;2022-11-06T03:59:57;12.10;99.90
22779;DHT22;11556;51.194;3.800;2022-11-06T04:02:27;12.00;99.90
22779;DHT22;11556;51.194;3.800;2022-11-06T04:04:58;12.00;99.90
22779;DHT22;11556;51.194;3.800;2022-11-06T04:07:34;12.00;99.90
22779;DHT22;11556;51.194;3.800;2022-11-06T04:10:03;12.00;99.90
22779;DHT22;11556;51.194;3.800;2022-11-06T04:12:50;11.90;99.90
22779;DHT22;11556;51.194;3.800;2022-11-06T04:15:54;12.00;99.90
22779;DHT22;11556;51.194;3.800;2022-11-06T04:18:19;12.00;99.90
22779;DHT22;11556;51.194;3.800;2022-11-06T04:20:52;12.00;99.90
22779;DHT22;11556;51.194;3.800;2022-11-06T04:27:01;12.10;99.90
22779;DHT22;11556;51.194;3.800;2022-11-06T04:34:46;12.10;99.90
22779;DHT22;11556;51.194;3.800;2022-11-06T04:37:21;12.10;99.90
22779;DHT22;11556;51.194;3.800;2022-11-06T04:39:58;12.10;99.90
22779;DHT22;11556;51.194;3.800;2022-11-06T04:42:39;12.10;99.90
22779;DHT22;11556;51.194;3.800;2022-11-06T04:45:29;12.00;99.90
22779;DHT22;11556;51.194;3.800;2022-11-06T04:47:57;12.10;99.90
22779;DHT22;11556;51.194;3.800;2022-11-06T04:50:24;12.10;99.90
22779;DHT22;11556;51.194;3.800;2022-11-06T04:52:52;12.20;99.90
22779;DHT22;11556;51.194;3.800;2022-11-06T04:55:19;12.10;99.90
22779;DHT22;11556;51.194;3.800;2022-11-06T04:57:45;12.10;99.90
22779;DHT22;11556;51.194;3.800;2022-11-06T05:00:15;12.10;99.90
22779;DHT22;11556;51.194;3.800;2022-11-06T05:02:41;12.10;99.90
22779;DHT22;11556;51.194;3.800;2022-11-06T05:05:07;12.10;99.90
22779;DHT22;11556;51.194;3.800;2022-11-06T05:07:33;12.10;99.90
22779;DHT22;11556;51.194;3.800;2022-11-06T05:09:59;12.00;99.90
22779;DHT22;11556;51.194;3.800;2022-11-06T05:12:24;12.10;99.90
22779;DHT22;11556;51.194;3.800;2022-11-06T05:14:50;12.10;99.90
22779;DHT22;11556;51.194;3.800;2022-11-06T05:17:15;12.00;99.90
22779;DHT22;11556;51.194;3.800;2022-11-06T05:19:41;12.00;99.90
22779;DHT22;11556;51.194;3.800;2022-11-06T05:22:08;12.00;99.90
22779;DHT22;11556;51.194;3.800;2022-11-06T05:24:52;11.90;99.90
22779;DHT22;11556;51.194;3.800;2022-11-06T05:27:17;11.90;99.90
22779;DHT22;11556;51.194;3.800;2022-11-06T05:29:43;11.90;99.90
22779;DHT22;11556;51.194;3.800;2022-11-06T05:32:09;11.90;99.90
22779;DHT22;11556;51.194;3.800;2022-11-06T05:34:34;11.80;99.90
22779;DHT22;11556;51.194;3.800;2022-11-06T05:37:00;11.80;99.90
22779;DHT22;11556;51.194;3.800;2022-11-06T05:39:25;11.80;99.90
22779;DHT22;11556;51.194;3.800;2022-11-06T05:41:51;11.70;99.90
22779;DHT22;11556;51.194;3.800;2022-11-06T05:44:17;11.70;99.90
22779;DHT22;11556;51.194;3.800;2022-11-06T05:46:42;11.80;99.90
22779;DHT22;11556;51.194;3.800;2022-11-06T05:49:08;11.60;99.90
22779;DHT22;11556;51.194;3.800;2022-11-06T05:51:34;11.70;99.90
22779;DHT22;11556;51.194;3.800;2022-11-06T05:54:00;11.80;99.90
22779;DHT22;11556;51.194;3.800;2022-11-06T05:56:26;11.80;99.90
22779;DHT22;11556;51.194;3.800;2022-11-06T05:58:51;11.80;99.90
22779;DHT22;11556;51.194;3.800;2022-11-06T06:01:17;11.80;99.90
22779;DHT22;11556;51.194;3.800;2022-11-06T06:03:43;11.90;99.90
22779;DHT22;11556;51.194;3.800;2022-11-06T06:06:08;11.90;99.90
22779;DHT22;11556;51.194;3.800;2022-11-06T06:08:34;12.00;99.90
22779;DHT22;11556;51.194;3.800;2022-11-06T06:10:59;12.00;99.90
22779;DHT22;11556;51.194;3.800;2022-11-06T06:13:25;11.90;99.90
22779;DHT22;11556;51.194;3.800;2022-11-06T06:15:50;11.90;99.90
22779;DHT22;11556;51.194;3.800;2022-11-06T06:18:16;11.90;99.90
22779;DHT22;11556;51.194;3.800;2022-11-06T06:20:42;11.90;99.90
22779;DHT22;11556;51.194;3.800;2022-11-06T06:23:08;11.90;99.90
22779;DHT22;11556;51.194;3.800;2022-11-06T06:25:34;11.90;99.90
22779;DHT22;11556;51.194;3.800;2022-11-06T06:27:59;11.90;99.90
22779;DHT22;11556;51.194;3.800;2022-11-06T06:30:25;11.90;99.90
22779;DHT22;11556;51.194;3.800;2022-11-06T06:32:51;12.00;99.90
22779;DHT22;11556;51.194;3.800;2022-11-06T06:35:17;11.90;99.90
22779;DHT22;11556;51.194;3.800;2022-11-06T06:38:02;11.90;99.90
22779;DHT22;11556;51.194;3.800;2022-11-06T06:40:28;12.00;99.90
22779;DHT22;11556;51.194;3.800;2022-11-06T06:42:58;11.90;99.90
22779;DHT22;11556;51.194;3.800;2022-11-06T06:45:24;12.00;99.90
22779;DHT22;11556;51.194;3.800;2022-11-06T06:47:50;11.90;99.90
22779;DHT22;11556;51.194;3.800;2022-11-06T06:50:15;11.90;99.90
22779;DHT22;11556;51.194;3.800;2022-11-06T06:52:42;12.00;99.90
22779;DHT22;11556;51.194;3.800;2022-11-06T06:55:08;12.00;99.90
22779;DHT22;11556;51.194;3.800;2022-11-06T06:57:34;12.00;99.90
22779;DHT22;11556;51.194;3.800;2022-11-06T06:59:59;12.00;99.90
22779;DHT22;11556;51.194;3.800;2022-11-06T07:02:25;12.00;99.90
22779;DHT22;11556;51.194;3.800;2022-11-06T07:04:50;12.00;99.90
22779;DHT22;11556;51.194;3.800;2022-11-06T07:07:16;12.10;99.90
22779;DHT22;11556;51.194;3.800;2022-11-06T07:09:42;12.10;99.90
22779;DHT22;11556;51.194;3.800;2022-11-06T07:12:07;12.20;99.90
22779;DHT22;11556;51.194;3.800;2022-11-06T07:14:33;12.20;99.90
22779;DHT22;11556;51.194;3.800;2022-11-06T07:16:58;12.20;99.90
22779;DHT22;11556;51.194;3.800;2022-11-06T07:19:24;12.20;99.90
22779;DHT22;11556;51.194;3.800;2022-11-06T07:21:50;12.20;99.90
22779;DHT22;11556;51.194;3.800;2022-11-06T07:24:16;12.30;99.90
22779;DHT22;11556;51.194;3.800;2022-11-06T07:26:43;12.40;99.90
22779;DHT22;11556;51.194;3.800;2022-11-06T07:29:08;12.50;99.90
22779;DHT22;11556;51.194;3.800;2022-11-06T07:31:34;12.60;99.90
22779;DHT22;11556;51.194;3.800;2022-11-06T07:33:59;12.70;99.90
22779;DHT22;11556;51.194;3.800;2022-11-06T07:36:25;12.80;99.90
22779;DHT22;11556;51.194;3.800;2022-11-06T07:38:51;12.90;99.90
22779;DHT22;11556;51.194;3.800;2022-11-06T07:41:16;12.90;99.90
22779;DHT22;11556;51.194;3.800;2022-11-06T07:43:42;12.90;99.90
22779;DHT22;11556;51.194;3.800;2022-11-06T07:46:10;13.00;99.90
22779;DHT22;11556;51.194;3.800;2022-11-06T07:48:36;13.00;99.90
22779;DHT22;11556;51.194;3.800;2022-11-06T07:51:04;13.00;99.90
22779;DHT22;11556;51.194;3.800;2022-11-06T07:53:30;13.00;99.90
22779;DHT22;11556;51.194;3.800;2022-11-06T07:55:56;13.00;99.90
22779;DHT22;11556;51.194;3.800;2022-11-06T07:58:23;13.00;99.90
22779;DHT22;11556;51.194;3.800;2022-11-06T08:00:54;12.90;99.90
22779;DHT22;11556;51.194;3.800;2022-11-06T08:03:20;12.90;99.90
22779;DHT22;11556;51.194;3.800;2022-11-06T08:05:46;12.90;99.90
22779;DHT22;11556;51.194;3.800;2022-11-06T08:08:12;13.00;99.90
22779;DHT22;11556;51.194;3.800;2022-11-06T08:10:38;13.00;99.90
22779;DHT22;11556;51.194;3.800;2022-11-06T08:13:13;13.00;99.90
22779;DHT22;11556;51.194;3.800;2022-11-06T08:15:40;13.00;99.90
22779;DHT22;11556;51.194;3.800;2022-11-06T08:18:06;13.00;99.90
22779;DHT22;11556;51.194;3.800;2022-11-06T08:20:37;12.90;99.90
22779;DHT22;11556;51.194;3.800;2022-11-06T08:23:04;12.90;99.90
22779;DHT22;11556;51.194;3.800;2022-11-06T08:25:30;13.00;99.90
22779;DHT22;11556;51.194;3.800;2022-11-06T08:27:58;13.00;99.90
22779;DHT22;11556;51.194;3.800;2022-11-06T08:30:24;13.00;99.90
22779;DHT22;11556;51.194;3.800;2022-11-06T08:32:50;13.00;99.90
22779;DHT22;11556;51.194;3.800;2022-11-06T08:35:16;13.00;99.90
22779;DHT22;11556;51.194;3.800;2022-11-06T08:37:41;13.10;99.90
22779;DHT22;11556;51.194;3.800;2022-11-06T08:40:08;13.20;99.90
22779;DHT22;11556;51.194;3.800;2022-11-06T08:42:34;13.10;99.90
22779;DHT22;11556;51.194;3.800;2022-11-06T08:44:59;13.20;99.90
22779;DHT22;11556;51.194;3.800;2022-11-06T08:47:25;13.20;99.90
22779;DHT22;11556;51.194;3.800;2022-11-06T08:49:50;13.20;99.90
22779;DHT22;11556;51.194;3.800;2022-11-06T08:52:16;13.30;99.90
22779;DHT22;11556;51.194;3.800;2022-11-06T08:54:41;13.30;99.90
22779;DHT22;11556;51.194;3.800;2022-11-06T08:57:07;13.30;99.90
22779;DHT22;11556;51.194;3.800;2022-11-06T08:59:33;13.30;99.90
22779;DHT22;11556;51.194;3.800;2022-11-06T09:01:58;13.30;99.90
22779;DHT22;11556;51.194;3.800;2022-11-06T09:04:25;13.30;99.90
22779;DHT22;11556;51.194;3.800;2022-11-06T09:06:50;13.30;99.90
22779;DHT22;11556;51.194;3.800;2022-11-06T09:09:16;13.40;99.90
22779;DHT22;11556;51.194;3.800;2022-11-06T09:11:42;13.40;99.90
22779;DHT22;11556;51.194;3.800;2022-11-06T09:14:07;13.50;99.90
22779;DHT22;11556;51.194;3.800;2022-11-06T09:16:33;13.50;99.90
22779;DHT22;11556;51.194;3.800;2022-11-06T09:18:58;13.50;99.90
22779;DHT22;11556;51.194;3.800;2022-11-06T09:21:24;13.50;99.90
22779;DHT22;11556;51.194;3.800;2022-11-06T09:23:50;13.60;99.90
22779;DHT22;11556;51.194;3.800;2022-11-06T09:26:16;13.70;99.90
22779;DHT22;11556;51.194;3.800;2022-11-06T09:28:42;13.70;99.90
22779;DHT22;11556;51.194;3.800;2022-11-06T09:31:08;13.60;99.90
22779;DHT22;11556;51.194;3.800;2022-11-06T09:33:34;13.60;99.90
22779;DHT22;11556;51.194;3.800;2022-11-06T09:36:03;13.60;99.90
22779;DHT22;11556;51.194;3.800;2022-11-06T09:38:29;13.80;99.90
22779;DHT22;11556;51.194;3.800;2022-11-06T09:40:57;13.80;99.90
22779;DHT22;11556;51.194;3.800;2022-11-06T09:45:53;13.70;99.90
22779;DHT22;11556;51.194;3.800;2022-11-06T09:48:34;13.80;99.90
22779;DHT22;11556;51.194;3.800;2022-11-06T09:53:51;13.80;99.90
22779;DHT22;11556;51.194;3.800;2022-11-06T09:56:20;13.70;99.90
22779;DHT22;11556;51.194;3.800;2022-11-06T09:58:51;13.70;99.90
22779;DHT22;11556;51.194;3.800;2022-11-06T10:01:20;13.70;99.90
22779;DHT22;11556;51.194;3.800;2022-11-06T10:03:58;13.70;99.90
22779;DHT22;11556;51.194;3.800;2022-11-06T10:06:25;13.80;99.90
22779;DHT22;11556;51.194;3.800;2022-11-06T10:08:55;13.80;99.90
22779;DHT22;11556;51.194;3.800;2022-11-06T10:17:12;13.60;99.90
22779;DHT22;11556;51.194;3.800;2022-11-06T10:19:51;13.60;99.90
22779;DHT22;11556;51.194;3.800;2022-11-06T10:22:24;13.40;99.90
22779;DHT22;11556;51.194;3.800;2022-11-06T10:25:04;13.30;99.90
22779;DHT22;11556;51.194;3.800;2022-11-06T10:27:40;13.30;99.90
22779;DHT22;11556;51.194;3.800;2022-11-06T10:30:09;13.30;99.90
22779;DHT22;11556;51.194;3.800;2022-11-06T10:35:26;13.50;99.90
22779;DHT22;11556;51.194;3.800;2022-11-06T10:38:13;13.50;99.90
22779;DHT22;11556;51.194;3.800;2022-11-06T10:40:42;13.20;99.90
22779;DHT22;11556;51.194;3.800;2022-11-06T10:43:34;13.00;99.90
22779;DHT22;11556;51.194;3.800;2022-11-06T10:46:06;13.00;99.90
22779;DHT22;11556;51.194;3.800;2022-11-06T10:48:44;12.90;99.90
22779;DHT22;11556;51.194;3.800;2022-11-06T10:53:57;12.90;99.90
22779;DHT22;11556;51.194;3.800;2022-11-06T10:59:13;13.20;99.90
22779;DHT22;11556;51.194;3.800;2022-11-06T11:01:39;13.20;99.90
22779;DHT22;11556;51.194;3.800;2022-11-06T11:04:05;13.30;99.90
22779;DHT22;11556;51.194;3.800;2022-11-06T11:06:31;13.40;99.90
22779;DHT22;11556;51.194;3.800;2022-11-06T11:08:56;13.60;99.90
22779;DHT22;11556;51.194;3.800;2022-11-06T11:11:25;13.70;99.90
22779;DHT22;11556;51.194;3.800;2022-11-06T11:16:40;13.90;99.90
22779;DHT22;11556;51.194;3.800;2022-11-06T11:19:38;14.00;99.90
22779;DHT22;11556;51.194;3.800;2022-11-06T11:22:24;14.10;99.90
22779;DHT22;11556;51.194;3.800;2022-11-06T11:25:02;14.00;99.90
22779;DHT22;11556;51.194;3.800;2022-11-06T11:27:31;14.00;99.90
22779;DHT22;11556;51.194;3.800;2022-11-06T11:29:57;14.00;99.90
22779;DHT22;11556;51.194;3.800;2022-11-06T11:32:23;14.00;99.90
22779;DHT22;11556;51.194;3.800;2022-11-06T11:34:53;14.00;99.90
22779;DHT22;11556;51.194;3.800;2022-11-06T11:37:26;13.90;99.90
22779;DHT22;11556;51.194;3.800;2022-11-06T11:39:53;13.90;99.90
22779;DHT22;11556;51.194;3.800;2022-11-06T11:42:22;13.70;99.90
22779;DHT22;11556;51.194;3.800;2022-11-06T11:47:32;13.70;99.90
22779;DHT22;11556;51.194;3.800;2022-11-06T11:50:29;13.50;99.90
22779;DHT22;11556;51.194;3.800;2022-11-06T11:55:27;13.30;99.90
22779;DHT22;11556;51.194;3.800;2022-11-06T11:57:56;13.20;99.90
22779;DHT22;11556;51.194;3.800;2022-11-06T12:00:23;13.10;99.90
22779;DHT22;11556;51.194;3.800;2022-11-06T12:02:53;12.90;99.90
22779;DHT22;11556;51.194;3.800;2022-11-06T12:05:36;12.80;99.90
22779;DHT22;11556;51.194;3.800;2022-11-06T12:08:02;12.70;99.90
22779;DHT22;11556;51.194;3.800;2022-11-06T12:10:38;12.60;99.90
22779;DHT22;11556;51.194;3.800;2022-11-06T12:15:49;12.40;99.90
22779;DHT22;11556;51.194;3.800;2022-11-06T12:18:23;12.30;99.90
22779;DHT22;11556;51.194;3.800;2022-11-06T12:28:55;11.90;99.90
22779;DHT22;11556;51.194;3.800;2022-11-06T12:31:41;11.80;99.90
22779;DHT22;11556;51.194;3.800;2022-11-06T12:34:22;11.60;99.90
22779;DHT22;11556;51.194;3.800;2022-11-06T12:40:22;11.50;99.90
22779;DHT22;11556;51.194;3.800;2022-11-06T12:42:59;11.40;99.90
22779;DHT22;11556;51.194;3.800;2022-11-06T13:04:34;11.00;99.90
22779;DHT22;11556;51.194;3.800;2022-11-06T13:15:18;10.70;99.90
22779;DHT22;11556;51.194;3.800;2022-11-06T13:17:53;10.60;99.90
22779;DHT22;11556;51.194;3.800;2022-11-06T13:20:40;10.50;99.90
22779;DHT22;11556;51.194;3.800;2022-11-06T13:28:42;10.30;99.90
22779;DHT22;11556;51.194;3.800;2022-11-06T13:31:11;10.20;99.90
22779;DHT22;11556;51.194;3.800;2022-11-06T13:33:48;10.20;99.90
22779;DHT22;11556;51.194;3.800;2022-11-06T13:36:15;10.20;99.90
22779;DHT22;11556;51.194;3.800;2022-11-06T13:38:54;10.10;99.90
22779;DHT22;11556;51.194;3.800;2022-11-06T13:41:21;10.10;99.90
22779;DHT22;11556;51.194;3.800;2022-11-06T13:43:55;10.20;99.90
22779;DHT22;11556;51.194;3.800;2022-11-06T13:55:09;10.20;99.90
22779;DHT22;11556;51.194;3.800;2022-11-06T14:00:50;10.10;99.90
22779;DHT22;11556;51.194;3.800;2022-11-06T14:06:28;10.10;99.90
22779;DHT22;11556;51.194;3.800;2022-11-06T14:09:00;10.10;99.90
22779;DHT22;11556;51.194;3.800;2022-11-06T14:11:34;10.20;99.90
22779;DHT22;11556;51.194;3.800;2022-11-06T14:14:03;10.10;99.90
22779;DHT22;11556;51.194;3.800;2022-11-06T14:16:32;10.00;99.90
22779;DHT22;11556;51.194;3.800;2022-11-06T14:21:52;10.00;99.90
22779;DHT22;11556;51.194;3.800;2022-11-06T14:26:52;10.00;99.90
22779;DHT22;11556;51.194;3.800;2022-11-06T14:34:35;9.70;99.90
22779;DHT22;11556;51.194;3.800;2022-11-06T14:42:37;9.70;99.90
22779;DHT22;11556;51.194;3.800;2022-11-06T14:45:19;9.70;99.90
22779;DHT22;11556;51.194;3.800;2022-11-06T14:50:23;9.70;99.90
22779;DHT22;11556;51.194;3.800;2022-11-06T14:53:06;9.70;99.90
22779;DHT22;11556;51.194;3.800;2022-11-06T14:55:44;9.70;99.90
22779;DHT22;11556;51.194;3.800;2022-11-06T14:58:12;9.80;99.90
22779;DHT22;11556;51.194;3.800;2022-11-06T15:00:58;9.60;99.90
22779;DHT22;11556;51.194;3.800;2022-11-06T15:05:57;9.60;99.90
22779;DHT22;11556;51.194;3.800;2022-11-06T15:17:28;9.70;99.90
22779;DHT22;11556;51.194;3.800;2022-11-06T15:19:41;9.60;99.90
22779;DHT22;11556;51.194;3.800;2022-11-06T15:24:58;9.60;99.90
22779;DHT22;11556;51.194;3.800;2022-11-06T15:27:29;9.60;99.90
22779;DHT22;11556;51.194;3.800;2022-11-06T15:29:58;9.60;99.90
22779;DHT22;11556;51.194;3.800;2022-11-06T15:32:28;9.60;99.90
22779;DHT22;11556;51.194;3.800;2022-11-06T15:37:31;9.70;99.90
22779;DHT22;11556;51.194;3.800;2022-11-06T15:39:59;9.70;99.90
22779;DHT22;11556;51.194;3.800;2022-11-06T15:42:35;9.60;99.90
22779;DHT22;11556;51.194;3.800;2022-11-06T15:45:19;9.60;99.90
22779;DHT22;11556;51.194;3.800;2022-11-06T15:47:56;9.60;99.90
22779;DHT22;11556;51.194;3.800;2022-11-06T15:50:25;9.60;99.90
22779;DHT22;11556;51.194;3.800;2022-11-06T15:52:51;9.70;99.90
22779;DHT22;11556;51.194;3.800;2022-11-06T15:55:31;9.60;99.90
22779;DHT22;11556;51.194;3.800;2022-11-06T15:58:30;9.60;99.90
22779;DHT22;11556;51.194;3.800;2022-11-06T16:00:55;9.70;99.90
22779;DHT22;11556;51.194;3.800;2022-11-06T16:03:23;9.70;99.90
22779;DHT22;11556;51.194;3.800;2022-11-06T16:05:50;9.80;99.90
22779;DHT22;11556;51.194;3.800;2022-11-06T16:08:18;9.80;99.90
22779;DHT22;11556;51.194;3.800;2022-11-06T16:10:45;9.90;99.90
22779;DHT22;11556;51.194;3.800;2022-11-06T16:13:15;9.90;99.90
22779;DHT22;11556;51.194;3.800;2022-11-06T16:23:36;10.10;99.90
22779;DHT22;11556;51.194;3.800;2022-11-06T16:26:06;10.10;99.90
22779;DHT22;11556;51.194;3.800;2022-11-06T16:28:33;10.10;99.90
22779;DHT22;11556;51.194;3.800;2022-11-06T16:31:07;10.10;99.90
22779;DHT22;11556;51.194;3.800;2022-11-06T16:33:33;10.10;99.90
22779;DHT22;11556;51.194;3.800;2022-11-06T16:36:12;10.20;99.90
22779;DHT22;11556;51.194;3.800;2022-11-06T16:38:39;10.30;99.90
22779;DHT22;11556;51.194;3.800;2022-11-06T16:41:06;10.20;99.90
22779;DHT22;11556;51.194;3.800;2022-11-06T16:43:32;10.20;99.90
22779;DHT22;11556;51.194;3.800;2022-11-06T16:46:00;10.30;99.90
22779;DHT22;11556;51.194;3.800;2022-11-06T16:50:58;10.30;99.90
22779;DHT22;11556;51.194;3.800;2022-11-06T16:53:27;10.30;99.90
22779;DHT22;11556;51.194;3.800;2022-11-06T16:55:57;10.30;99.90
22779;DHT22;11556;51.194;3.800;2022-11-06T16:58:23;10.40;99.90
22779;DHT22;11556;51.194;3.800;2022-11-06T17:01:00;10.30;99.90
22779;DHT22;11556;51.194;3.800;2022-11-06T17:03:31;10.50;99.90
22779;DHT22;11556;51.194;3.800;2022-11-06T17:05:59;10.40;99.90
22779;DHT22;11556;51.194;3.800;2022-11-06T17:08:35;10.50;99.90
22779;DHT22;11556;51.194;3.800;2022-11-06T17:11:14;10.50;99.90
22779;DHT22;11556;51.194;3.800;2022-11-06T17:13:45;10.60;99.90
22779;DHT22;11556;51.194;3.800;2022-11-06T17:16:16;10.60;99.90
22779;DHT22;11556;51.194;3.800;2022-11-06T17:18:42;10.60;99.90
22779;DHT22;11556;51.194;3.800;2022-11-06T17:21:16;10.70;99.90
22779;DHT22;11556;51.194;3.800;2022-11-06T17:23:44;10.80;99.90
22779;DHT22;11556;51.194;3.800;2022-11-06T17:26:16;10.80;99.90
22779;DHT22;11556;51.194;3.800;2022-11-06T17:28:43;10.80;99.90
22779;DHT22;11556;51.194;3.800;2022-11-06T17:31:13;10.70;99.90
22779;DHT22;11556;51.194;3.800;2022-11-06T17:33:40;10.70;99.90
22779;DHT22;11556;51.194;3.800;2022-11-06T17:36:06;10.60;99.90
22779;DHT22;11556;51.194;3.800;2022-11-06T17:38:36;10.70;99.90
22779;DHT22;11556;51.194;3.800;2022-11-06T17:41:01;10.80;99.90
22779;DHT22;11556;51.194;3.800;2022-11-06T17:43:27;10.70;99.90
22779;DHT22;11556;51.194;3.800;2022-11-06T17:45:52;10.70;99.90
22779;DHT22;11556;51.194;3.800;2022-11-06T17:48:18;10.70;99.90
22779;DHT22;11556;51.194;3.800;2022-11-06T17:50:44;10.60;99.90
22779;DHT22;11556;51.194;3.800;2022-11-06T17:53:28;10.60;99.90
22779;DHT22;11556;51.194;3.800;2022-11-06T17:55:53;10.60;99.90
22779;DHT22;11556;51.194;3.800;2022-11-06T17:58:19;10.70;99.90
22779;DHT22;11556;51.194;3.800;2022-11-06T18:00:44;10.80;99.90
22779;DHT22;11556;51.194;3.800;2022-11-06T18:03:17;10.80;99.90
22779;DHT22;11556;51.194;3.800;2022-11-06T18:05:44;10.90;99.90
22779;DHT22;11556;51.194;3.800;2022-11-06T18:08:11;10.90;99.90
22779;DHT22;11556;51.194;3.800;2022-11-06T18:10:37;10.90;99.90
22779;DHT22;11556;51.194;3.800;2022-11-06T18:13:04;11.00;99.90
22779;DHT22;11556;51.194;3.800;2022-11-06T18:15:32;11.00;99.90
22779;DHT22;11556;51.194;3.800;2022-11-06T18:17:58;11.00;99.90
22779;DHT22;11556;51.194;3.800;2022-11-06T18:20:24;11.00;99.90
22779;DHT22;11556;51.194;3.800;2022-11-06T18:22:49;11.00;99.90
22779;DHT22;11556;51.194;3.800;2022-11-06T18:25:15;11.00;99.90
22779;DHT22;11556;51.194;3.800;2022-11-06T18:27:41;11.00;99.90
22779;DHT22;11556;51.194;3.800;2022-11-06T18:30:06;11.00;99.90